sensor_id;sensor_type;location;lat;lon;timestamp;pressure;altitude;pressure_sealevel;temperature;humidity
17254;BME280;32542;52.832;13.816;2023-03-20T00:02:39;101467.16;;;21.60;46.62
17254;BME280;32542;52.832;13.816;2023-03-20T00:05:42;101453.81;;;21.60;46.58
17254;BME280;32542;52.832;13.816;2023-03-20T00:08:46;101458.25;;;21.61;46.68
17254;BME280;32542;52.832;13.816;2023-03-20T00:11:52;101454.69;;;21.60;46.58
17254;BME280;32542;52.832;13.816;2023-03-20T00:15:06;101460.03;;;21.60;46.43
17254;BME280;32542;52.832;13.816;2023-03-20T00:18:16;101452.91;;;21.61;46.57
17254;BME280;32542;52.832;13.816;2023-03-20T00:21:20;101452.94;;;21.59;46.45
17254;BME280;32542;52.832;13.816;2023-03-20T00:24:24;101449.41;;;21.59;46.41
17254;BME280;32542;52.832;13.816;2023-03-20T00:27:27;101453.91;;;21.58;46.53
17254;BME280;32542;52.832;13.816;2023-03-20T00:30:31;101457.47;;;21.57;46.49
17254;BME280;32542;52.832;13.816;2023-03-20T00:33:34;101452.22;;;21.56;46.56
17254;BME280;32542;52.832;13.816;2023-03-20T00:36:38;101450.47;;;21.55;46.50
17254;BME280;32542;52.832;13.816;2023-03-20T00:39:41;101445.13;;;21.55;46.67
17254;BME280;32542;52.832;13.816;2023-03-20T00:42:46;101451.41;;;21.54;46.56
17254;BME280;32542;52.832;13.816;2023-03-20T00:45:52;101447.00;;;21.53;46.58
17254;BME280;32542;52.832;13.816;2023-03-20T00:48:55;101449.72;;;21.51;46.62
17254;BME280;32542;52.832;13.816;2023-03-20T00:51:59;101443.53;;;21.51;46.63
17254;BME280;32542;52.832;13.816;2023-03-20T00:55:03;101449.72;;;21.51;46.60
17254;BME280;32542;52.832;13.816;2023-03-20T00:58:08;101447.94;;;21.52;46.60
17254;BME280;32542;52.832;13.816;2023-03-20T01:01:14;101440.81;;;21.52;46.67
17254;BME280;32542;52.832;13.816;2023-03-20T01:04:19;101440.81;;;21.52;46.51
17254;BME280;32542;52.832;13.816;2023-03-20T01:07:22;101438.09;;;21.54;46.48
17254;BME280;32542;52.832;13.816;2023-03-20T01:10:28;101439.00;;;21.53;46.43
17254;BME280;32542;52.832;13.816;2023-03-20T01:13:32;101447.00;;;21.53;46.44
17254;BME280;32542;52.832;13.816;2023-03-20T01:16:36;101447.00;;;21.53;46.25
17254;BME280;32542;52.832;13.816;2023-03-20T01:19:39;101441.66;;;21.53;46.39
17254;BME280;32542;52.832;13.816;2023-03-20T01:22:43;101447.97;;;21.50;46.49
17254;BME280;32542;52.832;13.816;2023-03-20T01:25:46;101456.91;;;21.49;46.44
17254;BME280;32542;52.832;13.816;2023-03-20T01:28:49;101467.66;;;21.48;46.43
17254;BME280;32542;52.832;13.816;2023-03-20T01:31:54;101464.09;;;21.47;46.47
17254;BME280;32542;52.832;13.816;2023-03-20T01:35:00;101466.84;;;21.46;46.38
17254;BME280;32542;52.832;13.816;2023-03-20T01:38:11;101467.75;;;21.45;46.37
17254;BME280;32542;52.832;13.816;2023-03-20T01:41:15;101466.84;;;21.46;46.42
17254;BME280;32542;52.832;13.816;2023-03-20T01:44:27;101465.91;;;21.47;46.43
17254;BME280;32542;52.832;13.816;2023-03-20T01:47:33;101466.78;;;21.47;46.32
17254;BME280;32542;52.832;13.816;2023-03-20T01:50:37;101459.75;;;21.45;46.37
17254;BME280;32542;52.832;13.816;2023-03-20T01:53:47;101463.38;;;21.44;46.38
17254;BME280;32542;52.832;13.816;2023-03-20T01:56:55;101459.84;;;21.43;46.37
17254;BME280;32542;52.832;13.816;2023-03-20T02:00:03;101458.97;;;21.43;46.42
17254;BME280;32542;52.832;13.816;2023-03-20T02:03:18;101459.91;;;21.42;46.41
17254;BME280;32542;52.832;13.816;2023-03-20T02:06:41;101456.38;;;21.41;46.39
17254;BME280;32542;52.832;13.816;2023-03-20T02:10:07;101455.41;;;21.42;46.42
17254;BME280;32542;52.832;13.816;2023-03-20T02:13:29;101460.81;;;21.41;46.41
17254;BME280;32542;52.832;13.816;2023-03-20T02:16:33;101457.34;;;21.39;46.40
17254;BME280;32542;52.832;13.816;2023-03-20T02:20:00;101460.88;;;21.39;46.36
17254;BME280;32542;52.832;13.816;2023-03-20T02:26:57;101458.16;;;21.41;46.29
17254;BME280;32542;52.832;13.816;2023-03-20T02:34:14;101454.69;;;21.39;46.22
17254;BME280;32542;52.832;13.816;2023-03-20T02:37:50;101460.88;;;21.39;46.27
17254;BME280;32542;52.832;13.816;2023-03-20T02:41:00;101458.25;;;21.38;46.24
17254;BME280;32542;52.832;13.816;2023-03-20T02:44:08;101457.41;;;21.37;46.25
17254;BME280;32542;52.832;13.816;2023-03-20T02:47:20;101463.59;;;21.38;46.30
17254;BME280;32542;52.832;13.816;2023-03-20T02:50:31;101469.84;;;21.37;46.32
17254;BME280;32542;52.832;13.816;2023-03-20T02:53:45;101461.88;;;21.37;46.35
17254;BME280;32542;52.832;13.816;2023-03-20T02:56:57;101466.31;;;21.36;46.26
17254;BME280;32542;52.832;13.816;2023-03-20T03:00:09;101466.31;;;21.36;46.25
17254;BME280;32542;52.832;13.816;2023-03-20T03:03:17;101467.19;;;21.37;46.18
17254;BME280;32542;52.832;13.816;2023-03-20T03:06:23;101460.13;;;21.36;46.43
17254;BME280;32542;52.832;13.816;2023-03-20T03:09:32;101464.53;;;21.37;46.20
17254;BME280;32542;52.832;13.816;2023-03-20T03:12:39;101462.78;;;21.36;46.30
17254;BME280;32542;52.832;13.816;2023-03-20T03:15:46;101459.19;;;21.37;46.23
17254;BME280;32542;52.832;13.816;2023-03-20T03:19:02;101468.97;;;21.36;46.21
17254;BME280;32542;52.832;13.816;2023-03-20T03:22:07;101454.84;;;21.34;46.22
17254;BME280;32542;52.832;13.816;2023-03-20T03:25:12;101461.94;;;21.35;46.16
17254;BME280;32542;52.832;13.816;2023-03-20T03:28:22;101473.44;;;21.36;46.26
17254;BME280;32542;52.832;13.816;2023-03-20T03:31:28;101471.72;;;21.35;46.29
17254;BME280;32542;52.832;13.816;2023-03-20T03:34:34;101467.31;;;21.34;46.22
17254;BME280;32542;52.832;13.816;2023-03-20T03:37:44;101477.03;;;21.35;46.10
17254;BME280;32542;52.832;13.816;2023-03-20T03:40:55;101468.19;;;21.34;46.23
17254;BME280;32542;52.832;13.816;2023-03-20T03:44:06;101469.06;;;21.35;46.17
17254;BME280;32542;52.832;13.816;2023-03-20T03:47:16;101476.09;;;21.36;46.06
17254;BME280;32542;52.832;13.816;2023-03-20T03:50:24;101473.41;;;21.37;46.14
17254;BME280;32542;52.832;13.816;2023-03-20T03:53:35;101468.91;;;21.38;46.02
17254;BME280;32542;52.832;13.816;2023-03-20T03:56:43;101473.34;;;21.39;46.01
17254;BME280;32542;52.832;13.816;2023-03-20T03:59:50;101467.94;;;21.40;46.04
17254;BME280;32542;52.832;13.816;2023-03-20T04:02:56;101466.16;;;21.41;46.04
17254;BME280;32542;52.832;13.816;2023-03-20T04:06:01;101464.34;;;21.41;46.04
17254;BME280;32542;52.832;13.816;2023-03-20T04:09:06;101468.75;;;21.42;46.03
17254;BME280;32542;52.832;13.816;2023-03-20T04:12:29;101474.94;;;21.43;45.93
17254;BME280;32542;52.832;13.816;2023-03-20T04:15:33;101472.28;;;21.43;46.06
17254;BME280;32542;52.832;13.816;2023-03-20T04:18:38;101477.53;;;21.44;45.99
17254;BME280;32542;52.832;13.816;2023-03-20T04:21:41;101481.06;;;21.45;45.88
17254;BME280;32542;52.832;13.816;2023-03-20T04:24:46;101481.97;;;21.45;45.91
17254;BME280;32542;52.832;13.816;2023-03-20T04:27:50;101483.63;;;21.48;45.90
17254;BME280;32542;52.832;13.816;2023-03-20T04:31:22;101479.22;;;21.47;45.91
17254;BME280;32542;52.832;13.816;2023-03-20T04:34:44;101483.63;;;21.48;45.71
17254;BME280;32542;52.832;13.816;2023-03-20T04:38:01;101487.16;;;21.48;45.83
17254;BME280;32542;52.832;13.816;2023-03-20T04:41:07;101487.16;;;21.48;45.88
17254;BME280;32542;52.832;13.816;2023-03-20T04:44:11;101497.78;;;21.50;45.89
17254;BME280;32542;52.832;13.816;2023-03-20T04:47:17;101496.03;;;21.49;45.78
17254;BME280;32542;52.832;13.816;2023-03-20T04:50:20;101496.91;;;21.49;45.63
17254;BME280;32542;52.832;13.816;2023-03-20T04:53:25;101491.56;;;21.49;45.86
17254;BME280;32542;52.832;13.816;2023-03-20T04:56:29;101488.91;;;21.49;45.78
17254;BME280;32542;52.832;13.816;2023-03-20T04:59:46;101489.78;;;21.50;45.79
17254;BME280;32542;52.832;13.816;2023-03-20T05:02:50;101494.22;;;21.49;45.74
17254;BME280;32542;52.832;13.816;2023-03-20T05:05:53;101495.94;;;21.50;45.87
17254;BME280;32542;52.832;13.816;2023-03-20T05:08:57;101493.28;;;21.50;45.79
17254;BME280;32542;52.832;13.816;2023-03-20T05:12:04;101497.78;;;21.50;45.76
17254;BME280;32542;52.832;13.816;2023-03-20T05:15:17;101501.28;;;21.50;45.85
17254;BME280;32542;52.832;13.816;2023-03-20T05:18:38;101504.00;;;21.49;45.73
17254;BME280;32542;52.832;13.816;2023-03-20T05:21:59;101509.34;;;21.49;45.80
17254;BME280;32542;52.832;13.816;2023-03-20T05:25:32;101504.97;;;21.48;45.79
17254;BME280;32542;52.832;13.816;2023-03-20T05:28:46;101508.47;;;21.48;45.79
17254;BME280;32542;52.832;13.816;2023-03-20T05:32:06;101512.94;;;21.48;45.72
17254;BME280;32542;52.832;13.816;2023-03-20T05:35:33;101512.94;;;21.48;45.73
17254;BME280;32542;52.832;13.816;2023-03-20T05:38:46;101512.94;;;21.48;45.72
17254;BME280;32542;52.832;13.816;2023-03-20T05:42:09;101507.63;;;21.48;45.80
17254;BME280;32542;52.832;13.816;2023-03-20T05:45:31;101506.69;;;21.49;45.85
17254;BME280;32542;52.832;13.816;2023-03-20T05:48:46;101509.34;;;21.49;45.71
17254;BME280;32542;52.832;13.816;2023-03-20T05:52:06;101509.34;;;21.49;45.71
17254;BME280;32542;52.832;13.816;2023-03-20T05:55:21;101506.69;;;21.49;45.74
17254;BME280;32542;52.832;13.816;2023-03-20T05:58:55;101495.09;;;21.50;45.70
17254;BME280;32542;52.832;13.816;2023-03-20T06:02:08;101503.03;;;21.51;45.65
17254;BME280;32542;52.832;13.816;2023-03-20T06:05:15;101503.03;;;21.51;45.72
17254;BME280;32542;52.832;13.816;2023-03-20T06:08:24;101503.03;;;21.51;45.69
17254;BME280;32542;52.832;13.816;2023-03-20T06:11:28;101497.69;;;21.51;45.72
17254;BME280;32542;52.832;13.816;2023-03-20T06:14:32;101501.25;;;21.52;45.61
17254;BME280;32542;52.832;13.816;2023-03-20T06:17:39;101503.84;;;21.53;45.62
17254;BME280;32542;52.832;13.816;2023-03-20T06:20:45;101505.63;;;21.53;45.67
17254;BME280;32542;52.832;13.816;2023-03-20T06:23:53;101509.25;;;21.52;45.57
17254;BME280;32542;52.832;13.816;2023-03-20T06:26:57;101509.25;;;21.52;45.69
17254;BME280;32542;52.832;13.816;2023-03-20T06:30:01;101518.94;;;21.53;45.64
17254;BME280;32542;52.832;13.816;2023-03-20T06:33:08;101532.28;;;21.53;45.59
17254;BME280;32542;52.832;13.816;2023-03-20T06:36:27;101532.28;;;21.53;45.60
17254;BME280;32542;52.832;13.816;2023-03-20T06:39:37;101548.25;;;21.53;45.64
17254;BME280;32542;52.832;13.816;2023-03-20T06:42:44;101551.81;;;21.53;45.59
17254;BME280;32542;52.832;13.816;2023-03-20T06:45:48;101558.94;;;21.53;45.48
17254;BME280;32542;52.832;13.816;2023-03-20T06:48:56;101558.09;;;21.52;45.63
17254;BME280;32542;52.832;13.816;2023-03-20T06:52:00;101567.88;;;21.52;45.56
17254;BME280;32542;52.832;13.816;2023-03-20T06:55:06;101562.53;;;21.52;45.65
17254;BME280;32542;52.832;13.816;2023-03-20T06:58:09;101562.53;;;21.52;45.72
17254;BME280;32542;52.832;13.816;2023-03-20T07:01:14;101559.88;;;21.52;45.72
17254;BME280;32542;52.832;13.816;2023-03-20T07:04:20;101567.00;;;21.51;45.74
17254;BME280;32542;52.832;13.816;2023-03-20T07:07:28;101562.53;;;21.52;45.58
17254;BME280;32542;52.832;13.816;2023-03-20T07:10:31;101562.53;;;21.52;45.66
17254;BME280;32542;52.832;13.816;2023-03-20T07:13:34;101570.53;;;21.52;45.57
17254;BME280;32542;52.832;13.816;2023-03-20T07:16:49;101577.66;;;21.51;45.58
17254;BME280;32542;52.832;13.816;2023-03-20T07:19:52;101569.59;;;21.53;45.70
17254;BME280;32542;52.832;13.816;2023-03-20T07:22:56;101584.66;;;21.54;45.65
17254;BME280;32542;52.832;13.816;2023-03-20T07:26:02;101576.66;;;21.54;45.66
17254;BME280;32542;52.832;13.816;2023-03-20T07:29:06;101580.25;;;21.53;45.63
17254;BME280;32542;52.832;13.816;2023-03-20T07:32:10;101585.56;;;21.53;45.67
17254;BME280;32542;52.832;13.816;2023-03-20T07:35:20;101597.41;;;21.46;45.50
17254;BME280;32542;52.832;13.816;2023-03-20T07:38:26;101592.41;;;21.37;45.50
17254;BME280;32542;52.832;13.816;2023-03-20T07:41:39;101591.84;;;21.29;45.25
17254;BME280;32542;52.832;13.816;2023-03-20T07:44:44;101586.75;;;21.23;45.29
17254;BME280;32542;52.832;13.816;2023-03-20T07:47:47;101599.13;;;21.24;45.26
17254;BME280;32542;52.832;13.816;2023-03-20T07:50:50;101608.75;;;21.28;45.41
17254;BME280;32542;52.832;13.816;2023-03-20T07:53:54;101602.34;;;21.33;45.63
17254;BME280;32542;52.832;13.816;2023-03-20T07:56:57;101609.22;;;21.39;45.93
17254;BME280;32542;52.832;13.816;2023-03-20T08:00:00;101611.78;;;21.42;45.94
17254;BME280;32542;52.832;13.816;2023-03-20T08:03:12;101615.13;;;21.47;46.09
17254;BME280;32542;52.832;13.816;2023-03-20T08:06:15;101618.53;;;21.50;46.06
17254;BME280;32542;52.832;13.816;2023-03-20T08:09:19;101612.13;;;21.56;46.01
17254;BME280;32542;52.832;13.816;2023-03-20T08:12:22;101615.59;;;21.58;45.84
17254;BME280;32542;52.832;13.816;2023-03-20T08:15:25;101614.63;;;21.60;45.68
17254;BME280;32542;52.832;13.816;2023-03-20T08:18:28;101618.09;;;21.62;45.76
17254;BME280;32542;52.832;13.816;2023-03-20T08:21:32;101617.22;;;21.62;45.69
17254;BME280;32542;52.832;13.816;2023-03-20T08:24:36;101626.03;;;21.64;45.84
17254;BME280;32542;52.832;13.816;2023-03-20T08:27:39;101618.84;;;21.66;45.92
17254;BME280;32542;52.832;13.816;2023-03-20T08:30:42;101628.59;;;21.67;45.81
17254;BME280;32542;52.832;13.816;2023-03-20T08:33:46;101616.97;;;21.68;45.89
17254;BME280;32542;52.832;13.816;2023-03-20T08:36:49;101626.75;;;21.69;46.03
17254;BME280;32542;52.832;13.816;2023-03-20T08:39:54;101631.13;;;21.70;46.01
17254;BME280;32542;52.832;13.816;2023-03-20T08:42:57;101624.91;;;21.69;46.14
17254;BME280;32542;52.832;13.816;2023-03-20T08:46:01;101625.78;;;21.70;46.16
17254;BME280;32542;52.832;13.816;2023-03-20T08:49:04;101629.41;;;21.69;46.23
17254;BME280;32542;52.832;13.816;2023-03-20T08:52:07;101617.88;;;21.68;46.21
17254;BME280;32542;52.832;13.816;2023-03-20T08:55:13;101624.97;;;21.68;46.30
17254;BME280;32542;52.832;13.816;2023-03-20T08:58:17;101617.88;;;21.68;46.36
17254;BME280;32542;52.832;13.816;2023-03-20T09:01:20;101609.00;;;21.68;46.33
17254;BME280;32542;52.832;13.816;2023-03-20T09:04:23;101608.06;;;21.69;46.29
17254;BME280;32542;52.832;13.816;2023-03-20T09:07:27;101592.09;;;21.69;46.36
17254;BME280;32542;52.832;13.816;2023-03-20T09:10:31;101583.22;;;21.68;46.28
17254;BME280;32542;52.832;13.816;2023-03-20T09:13:35;101589.41;;;21.69;46.40
17254;BME280;32542;52.832;13.816;2023-03-20T09:16:38;101594.75;;;21.69;46.25
17254;BME280;32542;52.832;13.816;2023-03-20T09:19:41;101597.41;;;21.69;46.35
17254;BME280;32542;52.832;13.816;2023-03-20T09:22:45;101589.34;;;21.70;46.41
17254;BME280;32542;52.832;13.816;2023-03-20T09:25:49;101598.22;;;21.71;46.42
17254;BME280;32542;52.832;13.816;2023-03-20T09:28:52;101594.69;;;21.70;46.29
17254;BME280;32542;52.832;13.816;2023-03-20T09:31:55;101613.34;;;21.70;46.44
17254;BME280;32542;52.832;13.816;2023-03-20T09:34:58;101615.13;;;21.70;46.45
17254;BME280;32542;52.832;13.816;2023-03-20T09:38:01;101609.78;;;21.70;46.37
17254;BME280;32542;52.832;13.816;2023-03-20T09:41:06;101615.13;;;21.70;46.40
17254;BME280;32542;52.832;13.816;2023-03-20T09:44:18;101613.41;;;21.69;46.47
17254;BME280;32542;52.832;13.816;2023-03-20T09:47:34;101624.06;;;21.69;46.40
17254;BME280;32542;52.832;13.816;2023-03-20T09:50:45;101625.88;;;21.68;46.49
17254;BME280;32542;52.832;13.816;2023-03-20T09:53:53;101621.41;;;21.69;46.37
17254;BME280;32542;52.832;13.816;2023-03-20T09:57:03;101624.06;;;21.69;46.61
17254;BME280;32542;52.832;13.816;2023-03-20T10:00:12;101618.75;;;21.69;46.74
17254;BME280;32542;52.832;13.816;2023-03-20T10:03:20;101616.88;;;21.71;46.57
17254;BME280;32542;52.832;13.816;2023-03-20T10:06:24;101623.13;;;21.70;46.64
17254;BME280;32542;52.832;13.816;2023-03-20T10:09:28;101622.22;;;21.71;46.64
17254;BME280;32542;52.832;13.816;2023-03-20T10:12:49;101623.94;;;21.72;46.54
17254;BME280;32542;52.832;13.816;2023-03-20T10:16:01;101623.13;;;21.70;46.58
17254;BME280;32542;52.832;13.816;2023-03-20T10:19:20;101620.47;;;21.70;46.61
17254;BME280;32542;52.832;13.816;2023-03-20T10:22:26;101616.06;;;21.69;46.61
17254;BME280;32542;52.832;13.816;2023-03-20T10:25:31;101617.88;;;21.68;46.70
17254;BME280;32542;52.832;13.816;2023-03-20T10:28:42;101615.19;;;21.68;46.61
17254;BME280;32542;52.832;13.816;2023-03-20T10:31:52;101615.19;;;21.68;46.62
17254;BME280;32542;52.832;13.816;2023-03-20T10:35:10;101611.66;;;21.68;46.66
17254;BME280;32542;52.832;13.816;2023-03-20T10:38:25;101616.06;;;21.69;46.58
17254;BME280;32542;52.832;13.816;2023-03-20T10:41:37;101609.88;;;21.68;46.60
17254;BME280;32542;52.832;13.816;2023-03-20T10:44:48;101592.94;;;21.69;46.55
17254;BME280;32542;52.832;13.816;2023-03-20T10:47:53;101599.13;;;21.70;46.60
17254;BME280;32542;52.832;13.816;2023-03-20T10:50:59;101596.47;;;21.70;46.61
17254;BME280;32542;52.832;13.816;2023-03-20T10:54:05;101593.81;;;21.70;46.52
17254;BME280;32542;52.832;13.816;2023-03-20T10:57:14;101598.22;;;21.71;46.66
17254;BME280;32542;52.832;13.816;2023-03-20T11:00:23;101597.34;;;21.70;46.59
17254;BME280;32542;52.832;13.816;2023-03-20T11:03:30;101602.59;;;21.72;46.60
17254;BME280;32542;52.832;13.816;2023-03-20T11:06:39;101600.88;;;21.71;46.57
17254;BME280;32542;52.832;13.816;2023-03-20T11:09:43;101586.69;;;21.70;46.68
17254;BME280;32542;52.832;13.816;2023-03-20T11:12:48;101596.47;;;21.70;46.60
17254;BME280;32542;52.832;13.816;2023-03-20T11:15:54;101596.47;;;21.70;46.71
17254;BME280;32542;52.832;13.816;2023-03-20T11:19:04;101593.81;;;21.70;46.66
17254;BME280;32542;52.832;13.816;2023-03-20T11:22:22;101592.94;;;21.69;46.66
17254;BME280;32542;52.832;13.816;2023-03-20T11:25:31;101595.56;;;21.71;46.61
17254;BME280;32542;52.832;13.816;2023-03-20T11:28:37;101595.56;;;21.71;46.61
17254;BME280;32542;52.832;13.816;2023-03-20T11:31:42;101593.81;;;21.70;46.55
17254;BME280;32542;52.832;13.816;2023-03-20T11:34:45;101595.56;;;21.71;46.63
17254;BME280;32542;52.832;13.816;2023-03-20T11:37:50;101595.56;;;21.71;46.43
17254;BME280;32542;52.832;13.816;2023-03-20T11:40:54;101586.63;;;21.72;46.63
17254;BME280;32542;52.832;13.816;2023-03-20T11:43:57;101585.78;;;21.71;46.54
17254;BME280;32542;52.832;13.816;2023-03-20T11:47:03;101596.44;;;21.71;46.58
17254;BME280;32542;52.832;13.816;2023-03-20T11:50:24;101583.94;;;21.72;46.59
17254;BME280;32542;52.832;13.816;2023-03-20T11:53:30;101581.28;;;21.72;46.74
17254;BME280;32542;52.832;13.816;2023-03-20T11:56:34;101578.69;;;21.70;46.60
17254;BME280;32542;52.832;13.816;2023-03-20T11:59:38;101580.47;;;21.70;46.72
17254;BME280;32542;52.832;13.816;2023-03-20T12:02:43;101582.22;;;21.71;46.75
17254;BME280;32542;52.832;13.816;2023-03-20T12:05:46;101574.22;;;21.71;46.78
17254;BME280;32542;52.832;13.816;2023-03-20T12:08:52;101572.47;;;21.70;46.82
17254;BME280;32542;52.832;13.816;2023-03-20T12:11:58;101576.03;;;21.70;46.86
17254;BME280;32542;52.832;13.816;2023-03-20T12:15:09;101571.56;;;21.71;46.82
17254;BME280;32542;52.832;13.816;2023-03-20T12:18:24;101581.28;;;21.72;46.83
17254;BME280;32542;52.832;13.816;2023-03-20T12:21:31;101570.63;;;21.72;46.90
17254;BME280;32542;52.832;13.816;2023-03-20T12:24:37;101573.28;;;21.72;46.78
17254;BME280;32542;52.832;13.816;2023-03-20T12:27:46;101570.63;;;21.72;46.78
17254;BME280;32542;52.832;13.816;2023-03-20T12:31:02;101568.91;;;21.71;46.86
17254;BME280;32542;52.832;13.816;2023-03-20T12:34:10;101566.22;;;21.71;46.93
17254;BME280;32542;52.832;13.816;2023-03-20T12:37:14;101570.63;;;21.72;46.82
17254;BME280;32542;52.832;13.816;2023-03-20T12:40:23;101575.09;;;21.71;46.81
17254;BME280;32542;52.832;13.816;2023-03-20T12:43:36;101564.44;;;21.71;46.77
17254;BME280;32542;52.832;13.816;2023-03-20T12:46:49;101566.22;;;21.71;46.75
17254;BME280;32542;52.832;13.816;2023-03-20T12:50:08;101568.03;;;21.70;46.76
17254;BME280;32542;52.832;13.816;2023-03-20T12:53:25;101563.56;;;21.71;46.68
17254;BME280;32542;52.832;13.816;2023-03-20T12:56:48;101562.63;;;21.72;46.70
17254;BME280;32542;52.832;13.816;2023-03-20T13:00:13;101559.03;;;21.73;46.79
17254;BME280;32542;52.832;13.816;2023-03-20T13:03:34;101557.28;;;21.72;46.84
17254;BME280;32542;52.832;13.816;2023-03-20T13:06:50;101543.91;;;21.73;46.69
17254;BME280;32542;52.832;13.816;2023-03-20T13:10:01;101549.28;;;21.72;46.65
17254;BME280;32542;52.832;13.816;2023-03-20T13:13:15;101542.25;;;21.71;46.77
17254;BME280;32542;52.832;13.816;2023-03-20T13:16:28;101543.97;;;21.72;46.63
17254;BME280;32542;52.832;13.816;2023-03-20T13:19:39;101543.97;;;21.72;46.74
17254;BME280;32542;52.832;13.816;2023-03-20T13:22:55;101542.25;;;21.71;46.77
17254;BME280;32542;52.832;13.816;2023-03-20T13:26:07;101542.25;;;21.71;46.81
17254;BME280;32542;52.832;13.816;2023-03-20T13:29:18;101543.13;;;21.71;46.64
17254;BME280;32542;52.832;13.816;2023-03-20T13:32:37;101547.56;;;21.71;46.71
17254;BME280;32542;52.832;13.816;2023-03-20T13:35:49;101537.78;;;21.71;46.78
17254;BME280;32542;52.832;13.816;2023-03-20T13:38:59;101537.88;;;21.68;47.06
17254;BME280;32542;52.832;13.816;2023-03-20T13:42:11;101537.50;;;21.56;44.54
17254;BME280;32542;52.832;13.816;2023-03-20T13:45:24;101539.59;;;21.48;44.54
17254;BME280;32542;52.832;13.816;2023-03-20T13:48:34;101533.47;;;21.46;44.68
17254;BME280;32542;52.832;13.816;2023-03-20T13:51:40;101541.31;;;21.49;44.68
17254;BME280;32542;52.832;13.816;2023-03-20T13:54:58;101535.06;;;21.50;44.98
17254;BME280;32542;52.832;13.816;2023-03-20T13:58:22;101543.88;;;21.52;45.32
17254;BME280;32542;52.832;13.816;2023-03-20T14:01:38;101536.69;;;21.54;45.79
17254;BME280;32542;52.832;13.816;2023-03-20T14:04:46;101538.38;;;21.56;46.07
17254;BME280;32542;52.832;13.816;2023-03-20T14:07:55;101540.97;;;21.58;46.27
17254;BME280;32542;52.832;13.816;2023-03-20T14:11:12;101536.44;;;21.60;46.47
17254;BME280;32542;52.832;13.816;2023-03-20T14:14:22;101536.38;;;21.61;46.57
17254;BME280;32542;52.832;13.816;2023-03-20T14:17:27;101535.41;;;21.64;46.85
17254;BME280;32542;52.832;13.816;2023-03-20T14:20:33;101540.66;;;21.65;46.92
17254;BME280;32542;52.832;13.816;2023-03-20T14:23:38;101531.75;;;21.66;46.94
17254;BME280;32542;52.832;13.816;2023-03-20T14:26:48;101531.63;;;21.69;47.10
17254;BME280;32542;52.832;13.816;2023-03-20T14:29:52;101516.50;;;21.70;46.87
17254;BME280;32542;52.832;13.816;2023-03-20T14:32:58;101523.56;;;21.71;46.92
17254;BME280;32542;52.832;13.816;2023-03-20T14:36:17;101520.91;;;21.71;47.12
17254;BME280;32542;52.832;13.816;2023-03-20T14:39:35;101513.78;;;21.71;47.15
17254;BME280;32542;52.832;13.816;2023-03-20T14:42:50;101511.13;;;21.71;47.17
17254;BME280;32542;52.832;13.816;2023-03-20T14:46:00;101517.28;;;21.72;47.12
17254;BME280;32542;52.832;13.816;2023-03-20T14:49:22;101515.56;;;21.71;47.28
17254;BME280;32542;52.832;13.816;2023-03-20T14:52:44;101519.16;;;21.70;47.16
17254;BME280;32542;52.832;13.816;2023-03-20T14:55:57;101515.56;;;21.71;47.26
17254;BME280;32542;52.832;13.816;2023-03-20T14:59:05;101520.91;;;21.71;47.32
17254;BME280;32542;52.832;13.816;2023-03-20T15:02:24;101520.91;;;21.71;47.21
17254;BME280;32542;52.832;13.816;2023-03-20T15:05:30;101518.25;;;21.71;47.21
17254;BME280;32542;52.832;13.816;2023-03-20T15:08:36;101519.13;;;21.71;47.16
17254;BME280;32542;52.832;13.816;2023-03-20T15:11:45;101508.47;;;21.71;47.26
17254;BME280;32542;52.832;13.816;2023-03-20T15:14:52;101508.38;;;21.73;47.28
17254;BME280;32542;52.832;13.816;2023-03-20T15:18:03;101503.97;;;21.72;47.20
17254;BME280;32542;52.832;13.816;2023-03-20T15:21:12;101490.59;;;21.73;47.34
17254;BME280;32542;52.832;13.816;2023-03-20T15:24:19;101492.38;;;21.73;47.33
17254;BME280;32542;52.832;13.816;2023-03-20T15:27:25;101490.59;;;21.73;47.44
17254;BME280;32542;52.832;13.816;2023-03-20T15:30:33;101491.50;;;21.72;47.39
17254;BME280;32542;52.832;13.816;2023-03-20T15:33:39;101491.50;;;21.72;47.46
17254;BME280;32542;52.832;13.816;2023-03-20T15:36:44;101491.50;;;21.72;47.45
17254;BME280;32542;52.832;13.816;2023-03-20T15:39:49;101493.31;;;21.72;47.58
17254;BME280;32542;52.832;13.816;2023-03-20T15:42:53;101492.38;;;21.73;47.53
17254;BME280;32542;52.832;13.816;2023-03-20T15:45:59;101496.78;;;21.74;47.42
17254;BME280;32542;52.832;13.816;2023-03-20T15:49:20;101497.66;;;21.74;47.51
17254;BME280;32542;52.832;13.816;2023-03-20T15:52:28;101500.25;;;21.76;47.47
17254;BME280;32542;52.832;13.816;2023-03-20T15:55:33;101497.59;;;21.76;47.40
17254;BME280;32542;52.832;13.816;2023-03-20T15:58:37;101491.41;;;21.75;47.55
17254;BME280;32542;52.832;13.816;2023-03-20T16:01:42;101499.41;;;21.75;47.42
17254;BME280;32542;52.832;13.816;2023-03-20T16:04:47;101508.25;;;21.76;47.50
17254;BME280;32542;52.832;13.816;2023-03-20T16:07:52;101501.19;;;21.75;47.48
17254;BME280;32542;52.832;13.816;2023-03-20T16:10:58;101494.13;;;21.74;47.54
17254;BME280;32542;52.832;13.816;2023-03-20T16:14:02;101492.38;;;21.73;47.46
17254;BME280;32542;52.832;13.816;2023-03-20T16:17:09;101494.19;;;21.72;47.52
17254;BME280;32542;52.832;13.816;2023-03-20T16:20:14;101490.59;;;21.73;47.43
17254;BME280;32542;52.832;13.816;2023-03-20T16:23:29;101498.59;;;21.73;47.33